Terminal Aerodrome Forecast
Issued by NWS

Home | Current Version | Previous Version | Text Only | Print | Product List | Glossary On
Versions: 1 2 3 4 5 6 7 8 9 10 11 12 13 14 15 16 17 18 19 20 21 22 23 24 25 26 27 28 29 30
797
FTUS46 KSEW 301640 AAC
TAFSEA
TAF AMD
KSEA 301640Z 3017/0118 12004KT 3/4SM BR OVC002
     FM301800 18005KT P6SM FEW008 SCT250
     FM301900 20007KT P6SM SCT250
     FM010400 21004KT P6SM BKN070 BKN200=

USA.gov is the U.S. government's official web portal to all federal, state and local government web resources and services.